sensor_id;sensor_type;location;lat;lon;timestamp;pressure;altitude;pressure_sealevel;temperature;humidity
37972;BME280;23794;48.234;8.344;2023-11-21T00:01:03;93704.69;;;5.72;85.95
37972;BME280;23794;48.234;8.344;2023-11-21T00:03:31;93693.03;;;5.71;85.91
37972;BME280;23794;48.234;8.344;2023-11-21T00:05:58;93697.66;;;5.63;87.19
37972;BME280;23794;48.234;8.344;2023-11-21T00:08:24;93686.78;;;5.63;87.57
37972;BME280;23794;48.234;8.344;2023-11-21T00:10:51;93691.09;;;5.72;86.38
37972;BME280;23794;48.234;8.344;2023-11-21T00:13:18;93684.88;;;5.68;86.58
37972;BME280;23794;48.234;8.344;2023-11-21T00:15:45;93695.34;;;5.65;86.23
37972;BME280;23794;48.234;8.344;2023-11-21T00:18:11;93691.06;;;5.64;86.33
37972;BME280;23794;48.234;8.344;2023-11-21T00:20:38;93690.31;;;5.64;87.16
37972;BME280;23794;48.234;8.344;2023-11-21T00:23:05;93696.50;;;5.68;87.26
37972;BME280;23794;48.234;8.344;2023-11-21T00:25:31;93688.41;;;5.75;86.66
37972;BME280;23794;48.234;8.344;2023-11-21T00:27:58;93690.31;;;5.64;86.82
37972;BME280;23794;48.234;8.344;2023-11-21T00:30:25;93683.31;;;5.66;86.62
37972;BME280;23794;48.234;8.344;2023-11-21T00:32:51;93683.34;;;5.74;86.34
37972;BME280;23794;48.234;8.344;2023-11-21T00:35:18;93687.63;;;5.78;86.24
37972;BME280;23794;48.234;8.344;2023-11-21T00:37:45;93686.84;;;5.78;86.03
37972;BME280;23794;48.234;8.344;2023-11-21T00:40:12;93687.63;;;5.78;86.12
37972;BME280;23794;48.234;8.344;2023-11-21T00:42:39;93690.69;;;5.66;87.78
37972;BME280;23794;48.234;8.344;2023-11-21T00:45:07;93680.53;;;5.48;87.06
37972;BME280;23794;48.234;8.344;2023-11-21T00:47:33;93686.31;;;5.43;88.23
37972;BME280;23794;48.234;8.344;2023-11-21T00:50:00;93687.91;;;5.55;88.12
37972;BME280;23794;48.234;8.344;2023-11-21T00:52:27;93684.84;;;5.60;88.19
37972;BME280;23794;48.234;8.344;2023-11-21T00:54:53;93682.91;;;5.64;87.13
37972;BME280;23794;48.234;8.344;2023-11-21T00:57:20;93689.88;;;5.58;87.41
37972;BME280;23794;48.234;8.344;2023-11-21T00:59:47;93683.66;;;5.58;87.92
37972;BME280;23794;48.234;8.344;2023-11-21T01:02:13;93682.84;;;5.46;88.10
37972;BME280;23794;48.234;8.344;2023-11-21T01:04:40;93684.75;;;5.42;88.74
37972;BME280;23794;48.234;8.344;2023-11-21T01:07:07;93684.81;;;5.49;88.77
37972;BME280;23794;48.234;8.344;2023-11-21T01:09:37;93688.72;;;5.59;87.78
37972;BME280;23794;48.234;8.344;2023-11-21T01:12:04;93688.34;;;5.64;87.67
37972;BME280;23794;48.234;8.344;2023-11-21T01:14:31;93684.03;;;5.53;88.87
37972;BME280;23794;48.234;8.344;2023-11-21T01:16:57;93681.31;;;5.56;88.90
37972;BME280;23794;48.234;8.344;2023-11-21T01:19:24;93683.63;;;5.54;89.13
37972;BME280;23794;48.234;8.344;2023-11-21T01:21:51;93675.47;;;5.54;88.76
37972;BME280;23794;48.234;8.344;2023-11-21T01:24:19;93668.53;;;5.53;89.36
37972;BME280;23794;48.234;8.344;2023-11-21T01:26:45;93677.44;;;5.57;88.84
37972;BME280;23794;48.234;8.344;2023-11-21T01:29:13;93673.13;;;5.49;89.52
37972;BME280;23794;48.234;8.344;2023-11-21T01:31:41;93680.16;;;5.54;89.57
37972;BME280;23794;48.234;8.344;2023-11-21T01:34:08;93678.97;;;5.51;89.78
37972;BME280;23794;48.234;8.344;2023-11-21T01:36:34;93687.19;;;5.62;88.54
37972;BME280;23794;48.234;8.344;2023-11-21T01:39:01;93679.44;;;5.68;88.02
37972;BME280;23794;48.234;8.344;2023-11-21T01:41:34;93675.53;;;5.69;88.22
37972;BME280;23794;48.234;8.344;2023-11-21T01:44:01;93670.09;;;5.65;88.61
37972;BME280;23794;48.234;8.344;2023-11-21T01:46:29;93669.31;;;5.61;89.50
37972;BME280;23794;48.234;8.344;2023-11-21T01:48:55;93677.47;;;5.64;88.70
37972;BME280;23794;48.234;8.344;2023-11-21T01:51:23;93669.34;;;5.72;88.09
37972;BME280;23794;48.234;8.344;2023-11-21T01:53:50;93670.09;;;5.69;88.64
37972;BME280;23794;48.234;8.344;2023-11-21T01:56:17;93674.00;;;5.68;88.83
37972;BME280;23794;48.234;8.344;2023-11-21T01:58:45;93674.38;;;5.66;88.93
37972;BME280;23794;48.234;8.344;2023-11-21T02:01:13;93675.19;;;5.70;89.12
37972;BME280;23794;48.234;8.344;2023-11-21T02:03:40;93675.97;;;5.78;88.79
37972;BME280;23794;48.234;8.344;2023-11-21T02:06:08;93675.16;;;5.63;89.61
37972;BME280;23794;48.234;8.344;2023-11-21T02:08:35;93675.50;;;5.61;89.76
37972;BME280;23794;48.234;8.344;2023-11-21T02:11:04;93666.63;;;5.68;88.97
37972;BME280;23794;48.234;8.344;2023-11-21T02:13:31;93669.38;;;5.75;88.87
37972;BME280;23794;48.234;8.344;2023-11-21T02:15:58;93665.91;;;5.78;88.69
37972;BME280;23794;48.234;8.344;2023-11-21T02:18:25;93665.09;;;5.78;88.74
37972;BME280;23794;48.234;8.344;2023-11-21T02:20:52;93670.84;;;5.55;89.59
37972;BME280;23794;48.234;8.344;2023-11-21T02:23:19;93669.28;;;5.50;89.30
37972;BME280;23794;48.234;8.344;2023-11-21T02:25:46;93673.47;;;5.37;90.84
37972;BME280;23794;48.234;8.344;2023-11-21T02:28:15;93670.00;;;5.43;90.60
37972;BME280;23794;48.234;8.344;2023-11-21T02:30:52;93663.84;;;5.54;90.65
37972;BME280;23794;48.234;8.344;2023-11-21T02:33:23;93660.34;;;5.49;90.70
37972;BME280;23794;48.234;8.344;2023-11-21T02:35:49;93654.84;;;5.42;91.04
37972;BME280;23794;48.234;8.344;2023-11-21T02:38:18;93653.72;;;5.50;90.21
37972;BME280;23794;48.234;8.344;2023-11-21T02:40:45;93647.53;;;5.46;90.28
37972;BME280;23794;48.234;8.344;2023-11-21T02:43:12;93640.50;;;5.38;90.37
37972;BME280;23794;48.234;8.344;2023-11-21T02:45:38;93643.91;;;5.24;90.09
37972;BME280;23794;48.234;8.344;2023-11-21T02:48:05;93629.16;;;5.18;90.48
37972;BME280;23794;48.234;8.344;2023-11-21T02:50:32;93637.63;;;5.06;90.95
37972;BME280;23794;48.234;8.344;2023-11-21T02:52:59;93641.50;;;5.08;90.43
37972;BME280;23794;48.234;8.344;2023-11-21T02:55:27;93650.41;;;5.09;90.12
37972;BME280;23794;48.234;8.344;2023-11-21T02:57:54;93639.59;;;5.12;89.81
37972;BME280;23794;48.234;8.344;2023-11-21T03:00:23;93639.94;;;5.07;89.48
37972;BME280;23794;48.234;8.344;2023-11-21T03:02:53;93648.31;;;4.84;90.54
37972;BME280;23794;48.234;8.344;2023-11-21T03:05:20;93639.41;;;4.87;90.24
37972;BME280;23794;48.234;8.344;2023-11-21T03:07:47;93632.75;;;4.77;91.07
37972;BME280;23794;48.234;8.344;2023-11-21T03:10:14;93635.59;;;4.95;89.60
37972;BME280;23794;48.234;8.344;2023-11-21T03:12:41;93638.28;;;4.95;89.13
37972;BME280;23794;48.234;8.344;2023-11-21T03:15:09;93640.19;;;4.84;89.93
37972;BME280;23794;48.234;8.344;2023-11-21T03:17:36;93655.34;;;4.89;89.17
37972;BME280;23794;48.234;8.344;2023-11-21T03:20:04;93655.22;;;4.74;90.64
37972;BME280;23794;48.234;8.344;2023-11-21T03:22:31;93655.66;;;4.83;89.93
37972;BME280;23794;48.234;8.344;2023-11-21T03:24:58;93653.31;;;4.78;90.21
37972;BME280;23794;48.234;8.344;2023-11-21T03:27:25;93654.91;;;4.83;89.71
37972;BME280;23794;48.234;8.344;2023-11-21T03:29:52;93651.09;;;4.91;89.73
37972;BME280;23794;48.234;8.344;2023-11-21T03:32:18;93651.84;;;4.92;89.98
37972;BME280;23794;48.234;8.344;2023-11-21T03:34:54;93649.56;;;4.97;89.80
37972;BME280;23794;48.234;8.344;2023-11-21T03:37:25;93651.84;;;4.92;90.42
37972;BME280;23794;48.234;8.344;2023-11-21T03:39:55;93658.06;;;4.89;90.29
37972;BME280;23794;48.234;8.344;2023-11-21T03:42:22;93656.88;;;4.93;90.46
37972;BME280;23794;48.234;8.344;2023-11-21T03:44:50;93664.34;;;5.00;89.77
37972;BME280;23794;48.234;8.344;2023-11-21T03:47:17;93661.69;;;5.11;89.17
37972;BME280;23794;48.234;8.344;2023-11-21T03:49:44;93657.06;;;5.11;88.99
37972;BME280;23794;48.234;8.344;2023-11-21T03:52:14;93657.06;;;5.15;88.74
37972;BME280;23794;48.234;8.344;2023-11-21T03:54:41;93669.31;;;4.94;90.05
37972;BME280;23794;48.234;8.344;2023-11-21T03:57:09;93669.25;;;4.83;91.01
37972;BME280;23794;48.234;8.344;2023-11-21T03:59:36;93665.72;;;4.79;91.60
37972;BME280;23794;48.234;8.344;2023-11-21T04:02:06;93660.75;;;4.85;91.49
37972;BME280;23794;48.234;8.344;2023-11-21T04:04:34;93663.84;;;4.87;91.28
37972;BME280;23794;48.234;8.344;2023-11-21T04:07:01;93655.44;;;4.99;90.55
37972;BME280;23794;48.234;8.344;2023-11-21T04:09:28;93653.53;;;5.11;89.41
37972;BME280;23794;48.234;8.344;2023-11-21T04:11:54;93653.16;;;5.12;89.05
37972;BME280;23794;48.234;8.344;2023-11-21T04:14:22;93648.13;;;5.11;89.12
37972;BME280;23794;48.234;8.344;2023-11-21T04:16:48;93648.91;;;5.11;88.30
37972;BME280;23794;48.234;8.344;2023-11-21T04:19:15;93657.00;;;5.04;88.45
37972;BME280;23794;48.234;8.344;2023-11-21T04:21:42;93659.25;;;4.95;88.46
37972;BME280;23794;48.234;8.344;2023-11-21T04:24:09;93668.47;;;4.83;88.78
37972;BME280;23794;48.234;8.344;2023-11-21T04:26:36;93669.22;;;4.80;88.72
37972;BME280;23794;48.234;8.344;2023-11-21T04:29:03;93669.97;;;4.77;88.80
37972;BME280;23794;48.234;8.344;2023-11-21T04:31:31;93675.06;;;4.82;88.70
37972;BME280;23794;48.234;8.344;2023-11-21T04:33:58;93670.81;;;4.88;88.53
37972;BME280;23794;48.234;8.344;2023-11-21T04:36:24;93675.06;;;4.85;88.63
37972;BME280;23794;48.234;8.344;2023-11-21T04:38:51;93676.28;;;4.92;88.50
37972;BME280;23794;48.234;8.344;2023-11-21T04:41:18;93673.91;;;4.83;90.10
37972;BME280;23794;48.234;8.344;2023-11-21T04:43:44;93671.81;;;4.65;90.66
37972;BME280;23794;48.234;8.344;2023-11-21T04:46:11;93677.25;;;4.65;90.82
37972;BME280;23794;48.234;8.344;2023-11-21T04:48:38;93674.16;;;4.67;90.63
37972;BME280;23794;48.234;8.344;2023-11-21T04:51:05;93678.47;;;4.75;89.80
37972;BME280;23794;48.234;8.344;2023-11-21T04:53:32;93678.16;;;4.80;89.19
37972;BME280;23794;48.234;8.344;2023-11-21T04:56:01;93685.03;;;4.70;89.96
37972;BME280;23794;48.234;8.344;2023-11-21T04:58:28;93689.75;;;4.77;89.56
37972;BME280;23794;48.234;8.344;2023-11-21T05:00:54;93684.75;;;4.83;89.36
37972;BME280;23794;48.234;8.344;2023-11-21T05:03:22;93692.81;;;4.72;90.32
37972;BME280;23794;48.234;8.344;2023-11-21T05:05:51;93686.94;;;4.66;90.96
37972;BME280;23794;48.234;8.344;2023-11-21T05:08:17;93688.59;;;4.78;90.73
37972;BME280;23794;48.234;8.344;2023-11-21T05:10:45;93685.94;;;4.85;90.05
37972;BME280;23794;48.234;8.344;2023-11-21T05:13:12;93690.22;;;4.90;90.16
37972;BME280;23794;48.234;8.344;2023-11-21T05:15:38;93684.78;;;4.86;91.07
37972;BME280;23794;48.234;8.344;2023-11-21T05:18:06;93692.91;;;4.83;91.02
37972;BME280;23794;48.234;8.344;2023-11-21T05:20:33;93683.66;;;4.91;90.45
37972;BME280;23794;48.234;8.344;2023-11-21T05:22:59;93690.22;;;4.86;90.88
37972;BME280;23794;48.234;8.344;2023-11-21T05:25:26;93694.88;;;4.90;91.01
37972;BME280;23794;48.234;8.344;2023-11-21T05:27:53;93697.81;;;4.66;91.61
37972;BME280;23794;48.234;8.344;2023-11-21T05:30:21;93702.22;;;4.85;90.72
37972;BME280;23794;48.234;8.344;2023-11-21T05:32:48;93706.88;;;4.85;90.71
37972;BME280;23794;48.234;8.344;2023-11-21T05:35:16;93706.03;;;4.77;91.37
37972;BME280;23794;48.234;8.344;2023-11-21T05:37:44;93712.16;;;4.70;91.51
37972;BME280;23794;48.234;8.344;2023-11-21T05:40:12;93716.53;;;4.82;90.94
37972;BME280;23794;48.234;8.344;2023-11-21T05:42:40;93720.78;;;4.80;90.91
37972;BME280;23794;48.234;8.344;2023-11-21T05:45:08;93726.63;;;4.85;91.03
37972;BME280;23794;48.234;8.344;2023-11-21T05:47:39;93719.63;;;4.81;91.19
37972;BME280;23794;48.234;8.344;2023-11-21T05:50:09;93722.34;;;4.84;91.13
37972;BME280;23794;48.234;8.344;2023-11-21T05:52:36;93720.38;;;4.78;91.66
37972;BME280;23794;48.234;8.344;2023-11-21T05:55:04;93720.78;;;4.80;91.60
37972;BME280;23794;48.234;8.344;2023-11-21T05:57:37;93718.81;;;4.77;91.45
37972;BME280;23794;48.234;8.344;2023-11-21T06:00:06;93713.75;;;4.75;91.66
37972;BME280;23794;48.234;8.344;2023-11-21T06:02:44;93718.91;;;4.87;90.59
37972;BME280;23794;48.234;8.344;2023-11-21T06:05:11;93720.38;;;4.78;91.59
37972;BME280;23794;48.234;8.344;2023-11-21T06:07:43;93722.66;;;4.72;91.76
37972;BME280;23794;48.234;8.344;2023-11-21T06:10:11;93722.66;;;4.72;91.69
37972;BME280;23794;48.234;8.344;2023-11-21T06:12:42;93726.47;;;4.64;92.48
37972;BME280;23794;48.234;8.344;2023-11-21T06:15:11;93718.06;;;4.80;91.63
37972;BME280;23794;48.234;8.344;2023-11-21T06:17:41;93726.66;;;4.89;90.95
37972;BME280;23794;48.234;8.344;2023-11-21T06:20:10;93727.03;;;4.84;91.27
37972;BME280;23794;48.234;8.344;2023-11-21T06:22:42;93724.38;;;4.95;90.94
37972;BME280;23794;48.234;8.344;2023-11-21T06:25:10;93726.00;;;4.99;91.08
37972;BME280;23794;48.234;8.344;2023-11-21T06:27:43;93727.94;;;5.02;90.58
37972;BME280;23794;48.234;8.344;2023-11-21T06:30:12;93731.44;;;4.99;90.16
37972;BME280;23794;48.234;8.344;2023-11-21T06:32:41;93734.41;;;4.91;90.41
37972;BME280;23794;48.234;8.344;2023-11-21T06:35:08;93736.88;;;4.99;90.94
37972;BME280;23794;48.234;8.344;2023-11-21T06:37:36;93737.28;;;5.09;90.72
37972;BME280;23794;48.234;8.344;2023-11-21T06:40:04;93756.69;;;5.07;90.78
37972;BME280;23794;48.234;8.344;2023-11-21T06:42:31;93749.19;;;4.97;90.91
37972;BME280;23794;48.234;8.344;2023-11-21T06:44:58;93742.28;;;4.99;91.26
37972;BME280;23794;48.234;8.344;2023-11-21T06:47:25;93743.78;;;4.97;91.42
37972;BME280;23794;48.234;8.344;2023-11-21T06:49:53;93742.75;;;5.12;90.65
37972;BME280;23794;48.234;8.344;2023-11-21T06:52:20;93747.03;;;5.13;90.82
37972;BME280;23794;48.234;8.344;2023-11-21T06:54:47;93754.47;;;5.24;89.70
37972;BME280;23794;48.234;8.344;2023-11-21T06:57:16;93754.41;;;5.13;90.80
37972;BME280;23794;48.234;8.344;2023-11-21T06:59:44;93754.41;;;5.13;90.64
37972;BME280;23794;48.234;8.344;2023-11-21T07:02:11;93755.19;;;5.13;89.98
37972;BME280;23794;48.234;8.344;2023-11-21T07:04:38;93756.75;;;5.14;89.30
37972;BME280;23794;48.234;8.344;2023-11-21T07:07:06;93757.09;;;5.09;89.49
37972;BME280;23794;48.234;8.344;2023-11-21T07:09:34;93762.09;;;5.03;90.00
37972;BME280;23794;48.234;8.344;2023-11-21T07:12:00;93771.44;;;5.10;89.57
37972;BME280;23794;48.234;8.344;2023-11-21T07:14:28;93776.84;;;5.06;90.25
37972;BME280;23794;48.234;8.344;2023-11-21T07:16:54;93775.72;;;5.11;90.31
37972;BME280;23794;48.234;8.344;2023-11-21T07:19:21;93780.06;;;5.19;89.68
37972;BME280;23794;48.234;8.344;2023-11-21T07:21:48;93783.22;;;5.28;90.02
37972;BME280;23794;48.234;8.344;2023-11-21T07:24:17;93786.34;;;5.27;89.12
37972;BME280;23794;48.234;8.344;2023-11-21T07:26:44;93787.47;;;5.22;89.74
37972;BME280;23794;48.234;8.344;2023-11-21T07:29:11;93791.41;;;5.32;89.11
37972;BME280;23794;48.234;8.344;2023-11-21T07:31:38;93789.34;;;5.18;88.83
37972;BME280;23794;48.234;8.344;2023-11-21T07:34:05;93792.50;;;5.24;90.43
37972;BME280;23794;48.234;8.344;2023-11-21T07:36:32;93801.84;;;5.30;90.26
37972;BME280;23794;48.234;8.344;2023-11-21T07:38:58;93794.41;;;5.23;90.16
37972;BME280;23794;48.234;8.344;2023-11-21T07:41:25;93799.53;;;5.28;89.82
37972;BME280;23794;48.234;8.344;2023-11-21T07:43:57;93808.94;;;5.42;89.60
37972;BME280;23794;48.234;8.344;2023-11-21T07:46:26;93800.78;;;5.42;89.25
37972;BME280;23794;48.234;8.344;2023-11-21T07:48:53;93810.06;;;5.41;89.54
37972;BME280;23794;48.234;8.344;2023-11-21T07:51:21;93808.50;;;5.40;89.71
37972;BME280;23794;48.234;8.344;2023-11-21T07:53:48;93813.53;;;5.34;90.03
37972;BME280;23794;48.234;8.344;2023-11-21T07:56:16;93817.78;;;5.35;90.12
37972;BME280;23794;48.234;8.344;2023-11-21T07:58:43;93814.34;;;5.42;89.49
37972;BME280;23794;48.234;8.344;2023-11-21T08:01:11;93816.34;;;5.48;89.66
37972;BME280;23794;48.234;8.344;2023-11-21T08:03:38;93824.88;;;5.50;89.95
37972;BME280;23794;48.234;8.344;2023-11-21T08:06:05;93823.22;;;5.35;89.51
37972;BME280;23794;48.234;8.344;2023-11-21T08:08:32;93826.38;;;5.41;89.89
37972;BME280;23794;48.234;8.344;2023-11-21T08:10:59;93822.59;;;5.53;90.53
37972;BME280;23794;48.234;8.344;2023-11-21T08:13:29;93829.66;;;5.64;89.00
37972;BME280;23794;48.234;8.344;2023-11-21T08:15:58;93830.72;;;5.49;88.92
37972;BME280;23794;48.234;8.344;2023-11-21T08:18:29;93833.75;;;5.40;88.65
37972;BME280;23794;48.234;8.344;2023-11-21T08:20:56;93829.56;;;5.50;88.25
37972;BME280;23794;48.234;8.344;2023-11-21T08:23:23;93835.41;;;5.52;87.84
37972;BME280;23794;48.234;8.344;2023-11-21T08:25:53;93834.66;;;5.59;88.86
37972;BME280;23794;48.234;8.344;2023-11-21T08:28:20;93833.53;;;5.63;88.78
37972;BME280;23794;48.234;8.344;2023-11-21T08:30:52;93830.00;;;5.56;88.87
37972;BME280;23794;48.234;8.344;2023-11-21T08:33:21;93830.44;;;5.69;89.29
37972;BME280;23794;48.234;8.344;2023-11-21T08:35:48;93836.31;;;5.78;88.00
37972;BME280;23794;48.234;8.344;2023-11-21T08:38:15;93839.91;;;5.89;87.77
37972;BME280;23794;48.234;8.344;2023-11-21T08:40:42;93841.53;;;6.01;86.90
37972;BME280;23794;48.234;8.344;2023-11-21T08:43:08;93844.19;;;5.90;87.10
37972;BME280;23794;48.234;8.344;2023-11-21T08:45:35;93843.03;;;5.95;86.04
37972;BME280;23794;48.234;8.344;2023-11-21T08:48:02;93848.44;;;5.91;86.80
37972;BME280;23794;48.234;8.344;2023-11-21T08:50:29;93849.91;;;5.78;87.38
37972;BME280;23794;48.234;8.344;2023-11-21T08:52:55;93857.75;;;5.83;87.82
37972;BME280;23794;48.234;8.344;2023-11-21T08:55:22;93853.75;;;5.73;87.34
37972;BME280;23794;48.234;8.344;2023-11-21T08:57:49;93858.91;;;5.86;87.58
37972;BME280;23794;48.234;8.344;2023-11-21T09:00:17;93855.25;;;5.63;87.72
37972;BME280;23794;48.234;8.344;2023-11-21T09:02:45;93850.53;;;5.49;89.10
37972;BME280;23794;48.234;8.344;2023-11-21T09:05:12;93851.34;;;5.57;89.13
37972;BME280;23794;48.234;8.344;2023-11-21T09:07:41;93852.19;;;5.69;88.68
37972;BME280;23794;48.234;8.344;2023-11-21T09:10:09;93851.88;;;5.77;88.42
37972;BME280;23794;48.234;8.344;2023-11-21T09:12:36;93852.25;;;5.76;88.46
37972;BME280;23794;48.234;8.344;2023-11-21T09:15:07;93857.25;;;5.70;88.40
37972;BME280;23794;48.234;8.344;2023-11-21T09:17:36;93857.28;;;5.74;88.60
37972;BME280;23794;48.234;8.344;2023-11-21T09:20:03;93860.09;;;5.88;88.21
37972;BME280;23794;48.234;8.344;2023-11-21T09:22:33;93860.13;;;5.95;87.89
37972;BME280;23794;48.234;8.344;2023-11-21T09:25:00;93868.69;;;5.97;88.07
37972;BME280;23794;48.234;8.344;2023-11-21T09:27:26;93872.22;;;6.05;86.21
37972;BME280;23794;48.234;8.344;2023-11-21T09:29:53;93873.72;;;5.95;87.07
37972;BME280;23794;48.234;8.344;2023-11-21T09:32:20;93870.19;;;5.91;87.63
37972;BME280;23794;48.234;8.344;2023-11-21T09:34:49;93877.97;;;5.89;87.85
37972;BME280;23794;48.234;8.344;2023-11-21T09:37:16;93872.13;;;5.87;88.08
37972;BME280;23794;48.234;8.344;2023-11-21T09:39:43;93878.38;;;5.95;87.50
37972;BME280;23794;48.234;8.344;2023-11-21T09:42:17;93886.16;;;5.96;87.67
37972;BME280;23794;48.234;8.344;2023-11-21T09:45:05;93885.34;;;5.92;87.64
37972;BME280;23794;48.234;8.344;2023-11-21T09:47:35;93893.59;;;6.07;87.84
37972;BME280;23794;48.234;8.344;2023-11-21T09:50:02;93887.47;;;6.21;87.08
37972;BME280;23794;48.234;8.344;2023-11-21T09:52:31;93894.47;;;6.25;85.58
37972;BME280;23794;48.234;8.344;2023-11-21T09:54:59;93894.88;;;6.27;85.64
37972;BME280;23794;48.234;8.344;2023-11-21T09:57:27;93888.63;;;6.20;86.18
37972;BME280;23794;48.234;8.344;2023-11-21T09:59:54;93900.66;;;6.22;86.82
37972;BME280;23794;48.234;8.344;2023-11-21T10:02:26;93897.94;;;6.22;86.49
37972;BME280;23794;48.234;8.344;2023-11-21T10:04:56;93901.88;;;6.25;86.34
37972;BME280;23794;48.234;8.344;2023-11-21T10:07:23;93905.44;;;6.40;85.90
37972;BME280;23794;48.234;8.344;2023-11-21T10:09:51;93901.84;;;6.21;85.26
37972;BME280;23794;48.234;8.344;2023-11-21T10:12:18;93897.88;;;6.11;86.89
37972;BME280;23794;48.234;8.344;2023-11-21T10:14:48;93894.72;;;5.98;87.39
37972;BME280;23794;48.234;8.344;2023-11-21T10:17:17;93896.31;;;6.07;86.91
37972;BME280;23794;48.234;8.344;2023-11-21T10:19:46;93897.13;;;6.11;86.93
37972;BME280;23794;48.234;8.344;2023-11-21T10:22:14;93896.41;;;6.21;86.88
37972;BME280;23794;48.234;8.344;2023-11-21T10:24:41;93901.50;;;6.30;86.24
37972;BME280;23794;48.234;8.344;2023-11-21T10:27:19;93899.63;;;6.49;86.46
37972;BME280;23794;48.234;8.344;2023-11-21T10:29:45;93902.03;;;6.61;86.65
37972;BME280;23794;48.234;8.344;2023-11-21T10:32:12;93900.84;;;6.55;85.83
37972;BME280;23794;48.234;8.344;2023-11-21T10:34:39;93900.53;;;6.74;85.70
37972;BME280;23794;48.234;8.344;2023-11-21T10:37:11;93896.63;;;6.68;85.33
37972;BME280;23794;48.234;8.344;2023-11-21T10:39:38;93894.69;;;6.72;86.30
37972;BME280;23794;48.234;8.344;2023-11-21T10:42:08;93898.19;;;6.73;84.87
37972;BME280;23794;48.234;8.344;2023-11-21T10:44:35;93895.91;;;6.89;84.46
37972;BME280;23794;48.234;8.344;2023-11-21T10:47:02;93900.16;;;6.87;84.67
37972;BME280;23794;48.234;8.344;2023-11-21T10:49:29;93895.50;;;6.76;84.94
37972;BME280;23794;48.234;8.344;2023-11-21T10:51:56;93904.84;;;6.90;84.51
37972;BME280;23794;48.234;8.344;2023-11-21T10:54:24;93893.88;;;6.65;85.34
37972;BME280;23794;48.234;8.344;2023-11-21T10:56:59;93895.09;;;6.82;85.59
37972;BME280;23794;48.234;8.344;2023-11-21T10:59:28;93896.25;;;6.77;85.50
37972;BME280;23794;48.234;8.344;2023-11-21T11:01:58;93893.56;;;6.84;85.43
37972;BME280;23794;48.234;8.344;2023-11-21T11:04:27;93899.84;;;7.03;84.65
37972;BME280;23794;48.234;8.344;2023-11-21T11:06:57;93897.16;;;7.17;84.40
37972;BME280;23794;48.234;8.344;2023-11-21T11:09:24;93900.66;;;7.32;83.56
37972;BME280;23794;48.234;8.344;2023-11-21T11:11:51;93898.69;;;7.07;83.07
37972;BME280;23794;48.234;8.344;2023-11-21T11:14:19;93902.19;;;7.12;83.94
37972;BME280;23794;48.234;8.344;2023-11-21T11:16:47;93908.78;;;7.07;84.48
37972;BME280;23794;48.234;8.344;2023-11-21T11:19:15;93904.13;;;7.07;83.69
37972;BME280;23794;48.234;8.344;2023-11-21T11:24:59;93901.00;;;7.02;84.02
37972;BME280;23794;48.234;8.344;2023-11-21T11:27:52;93902.53;;;6.96;83.68
37972;BME280;23794;48.234;8.344;2023-11-21T11:33:41;93908.41;;;7.08;82.95
37972;BME280;23794;48.234;8.344;2023-11-21T11:36:26;93901.41;;;7.07;83.65
37972;BME280;23794;48.234;8.344;2023-11-21T11:38:55;93906.81;;;6.93;83.76
37972;BME280;23794;48.234;8.344;2023-11-21T11:41:27;93911.47;;;6.92;83.94
37972;BME280;23794;48.234;8.344;2023-11-21T11:43:54;93914.94;;;6.86;84.68
37972;BME280;23794;48.234;8.344;2023-11-21T11:46:20;93905.63;;;6.87;83.89
37972;BME280;23794;48.234;8.344;2023-11-21T11:49:02;93911.06;;;6.83;84.35
37972;BME280;23794;48.234;8.344;2023-11-21T11:51:30;93905.22;;;6.74;84.58
37972;BME280;23794;48.234;8.344;2023-11-21T11:53:57;93909.09;;;6.76;84.51
37972;BME280;23794;48.234;8.344;2023-11-21T11:56:29;93909.81;;;6.66;85.21
37972;BME280;23794;48.234;8.344;2023-11-21T11:59:03;93920.28;;;6.57;85.53
37972;BME280;23794;48.234;8.344;2023-11-21T12:01:33;93915.19;;;6.48;85.45
37972;BME280;23794;48.234;8.344;2023-11-21T12:06:53;93916.44;;;6.65;86.02
37972;BME280;23794;48.234;8.344;2023-11-21T12:09:24;93914.91;;;6.71;85.04
37972;BME280;23794;48.234;8.344;2023-11-21T12:11:53;93913.75;;;6.80;85.17
37972;BME280;23794;48.234;8.344;2023-11-21T12:14:22;93921.56;;;6.77;84.84
37972;BME280;23794;48.234;8.344;2023-11-21T12:16:49;93919.97;;;6.69;85.52
37972;BME280;23794;48.234;8.344;2023-11-21T12:19:18;93916.44;;;6.69;86.14
37972;BME280;23794;48.234;8.344;2023-11-21T12:21:45;93919.22;;;6.80;84.55
37972;BME280;23794;48.234;8.344;2023-11-21T12:24:11;93916.88;;;6.78;84.26
37972;BME280;23794;48.234;8.344;2023-11-21T12:26:41;93914.13;;;6.71;84.71
37972;BME280;23794;48.234;8.344;2023-11-21T12:29:08;93917.25;;;6.76;85.15
37972;BME280;23794;48.234;8.344;2023-11-21T12:31:35;93920.00;;;6.84;85.31
37972;BME280;23794;48.234;8.344;2023-11-21T12:34:02;93914.19;;;6.85;84.59
37972;BME280;23794;48.234;8.344;2023-11-21T12:36:29;93923.13;;;6.89;83.71
37972;BME280;23794;48.234;8.344;2023-11-21T12:38:56;93922.00;;;7.05;84.00
37972;BME280;23794;48.234;8.344;2023-11-21T12:41:23;93922.78;;;6.98;84.16
37972;BME280;23794;48.234;8.344;2023-11-21T12:43:50;93922.38;;;6.92;83.65
37972;BME280;23794;48.234;8.344;2023-11-21T12:46:17;93920.78;;;6.88;83.86
37972;BME280;23794;48.234;8.344;2023-11-21T12:48:44;93923.03;;;6.64;85.10
37972;BME280;23794;48.234;8.344;2023-11-21T12:51:14;93923.81;;;6.61;85.29
37972;BME280;23794;48.234;8.344;2023-11-21T12:53:43;93918.69;;;6.52;85.82
37972;BME280;23794;48.234;8.344;2023-11-21T12:56:10;93933.13;;;6.60;85.99
37972;BME280;23794;48.234;8.344;2023-11-21T12:58:38;93930.91;;;6.84;86.21
37972;BME280;23794;48.234;8.344;2023-11-21T13:01:06;93927.84;;;7.07;84.56
37972;BME280;23794;48.234;8.344;2023-11-21T13:03:38;93926.66;;;7.01;84.53
37972;BME280;23794;48.234;8.344;2023-11-21T13:06:07;93925.16;;;7.18;83.35
37972;BME280;23794;48.234;8.344;2023-11-21T13:08:34;93925.56;;;7.23;83.71
37972;BME280;23794;48.234;8.344;2023-11-21T13:11:01;93929.34;;;6.86;83.40
37972;BME280;23794;48.234;8.344;2023-11-21T13:13:29;93935.94;;;6.82;84.22
37972;BME280;23794;48.234;8.344;2023-11-21T13:15:57;93933.66;;;6.91;83.72
37972;BME280;23794;48.234;8.344;2023-11-21T13:18:25;93937.53;;;6.93;84.24
37972;BME280;23794;48.234;8.344;2023-11-21T13:21:03;93939.91;;;7.02;82.45
37972;BME280;23794;48.234;8.344;2023-11-21T13:23:37;93943.38;;;6.92;83.45